createdAt,value
2018-12-19T00:02:21.297Z,-0.40
2018-12-19T00:04:49.696Z,-0.40
2018-12-19T00:07:18.119Z,-0.40
2018-12-19T00:09:46.524Z,-0.40
2018-12-19T00:12:14.947Z,-0.50
2018-12-19T00:14:43.347Z,-0.50
2018-12-19T00:17:11.836Z,-0.50
2018-12-19T00:19:40.234Z,-0.50
2018-12-19T00:22:08.658Z,-0.50
2018-12-19T00:24:37.066Z,-0.40
2018-12-19T00:27:05.515Z,-0.50
2018-12-19T00:29:33.921Z,-0.50
2018-12-19T00:32:02.346Z,-0.50
2018-12-19T00:34:30.755Z,-0.50
2018-12-19T00:36:59.174Z,-0.40
2018-12-19T00:39:27.581Z,-0.40
2018-12-19T00:41:56.122Z,-0.30
2018-12-19T00:44:24.572Z,-0.40
2018-12-19T00:46:52.996Z,-0.40
2018-12-19T00:49:21.400Z,-0.40
2018-12-19T00:51:49.830Z,-0.40
2018-12-19T00:54:18.291Z,-0.30
2018-12-19T00:56:46.811Z,-0.40
2018-12-19T00:59:15.210Z,-0.40
2018-12-19T01:01:43.631Z,-0.50
2018-12-19T01:04:12.038Z,-0.50
2018-12-19T01:06:40.477Z,-0.50
2018-12-19T01:09:08.919Z,-0.60
2018-12-19T01:11:37.472Z,-0.60
2018-12-19T01:14:05.998Z,-0.60
2018-12-19T01:16:34.434Z,-0.60
2018-12-19T01:19:02.858Z,-0.60
2018-12-19T01:21:31.259Z,-0.60
2018-12-19T01:23:59.726Z,-0.60
2018-12-19T01:26:28.128Z,-0.60
2018-12-19T01:28:56.582Z,-0.50
2018-12-19T01:31:25.671Z,-0.50
2018-12-19T01:33:54.099Z,-0.50
2018-12-19T01:36:22.526Z,-0.50
2018-12-19T01:38:50.941Z,-0.50
2018-12-19T01:41:19.338Z,-0.50
2018-12-19T01:43:47.758Z,-0.50
2018-12-19T01:46:16.165Z,-0.60
2018-12-19T01:48:44.642Z,-0.60
2018-12-19T01:51:13.038Z,-0.50
2018-12-19T01:53:41.478Z,-0.50
2018-12-19T01:56:09.980Z,-0.50
2018-12-19T01:58:38.404Z,-0.50
2018-12-19T02:01:06.813Z,-0.50
2018-12-19T02:03:35.310Z,-0.40
2018-12-19T02:06:03.825Z,-0.40
2018-12-19T02:08:32.230Z,-0.40
2018-12-19T02:11:00.654Z,-0.40
2018-12-19T02:13:29.059Z,-0.40
2018-12-19T02:15:57.482Z,-0.40
2018-12-19T02:18:25.882Z,-0.40
2018-12-19T02:20:54.310Z,-0.40
2018-12-19T02:23:22.706Z,-0.40
2018-12-19T02:25:51.155Z,-0.30
2018-12-19T02:28:19.561Z,-0.30
2018-12-19T02:30:47.986Z,-0.30
2018-12-19T02:33:16.399Z,-0.30
2018-12-19T02:35:44.819Z,-0.30
2018-12-19T02:38:13.240Z,-0.30
2018-12-19T02:40:41.666Z,-0.30
2018-12-19T02:43:10.061Z,-0.30
2018-12-19T02:45:38.486Z,-0.30
2018-12-19T02:48:06.896Z,-0.30
2018-12-19T02:50:35.313Z,-0.30
2018-12-19T02:53:03.731Z,-0.20
2018-12-19T02:55:32.153Z,-0.20
2018-12-19T02:58:00.558Z,-0.20
2018-12-19T03:00:29.003Z,-0.20
2018-12-19T03:02:57.411Z,-0.20
2018-12-19T03:05:25.830Z,-0.20
2018-12-19T03:07:54.291Z,-0.20
2018-12-19T03:10:22.786Z,-0.20
2018-12-19T03:12:51.203Z,-0.20
2018-12-19T03:15:19.648Z,-0.20
2018-12-19T03:17:48.077Z,-0.20
2018-12-19T03:20:16.497Z,-0.20
2018-12-19T03:22:44.931Z,-0.20
2018-12-19T03:25:13.445Z,-0.10
2018-12-19T03:27:41.870Z,-0.10
2018-12-19T03:30:10.525Z,-0.10
2018-12-19T03:32:38.959Z,-0.10
2018-12-19T03:35:07.369Z,-0.10
2018-12-19T03:37:35.815Z,0.00
2018-12-19T03:40:04.549Z,0.00
2018-12-19T03:42:33.025Z,0.00
2018-12-19T03:45:01.461Z,-0.10
2018-12-19T03:47:30.014Z,0.00
2018-12-19T03:49:58.562Z,0.00
2018-12-19T03:52:27.016Z,0.00
2018-12-19T03:54:55.417Z,0.10
2018-12-19T03:57:24.162Z,0.10
2018-12-19T03:59:52.570Z,0.10
2018-12-19T04:02:20.990Z,0.10
2018-12-19T04:04:49.405Z,0.20
2018-12-19T04:07:17.837Z,0.10
2018-12-19T04:09:46.243Z,0.20
2018-12-19T04:12:14.658Z,0.20
2018-12-19T04:14:43.062Z,0.20
2018-12-19T04:17:11.605Z,0.20
2018-12-19T04:19:40.136Z,0.20
2018-12-19T04:22:08.562Z,0.20
2018-12-19T04:24:36.961Z,0.20
2018-12-19T04:27:05.402Z,0.30
2018-12-19T04:32:43.783Z,0.30
2018-12-19T04:35:12.233Z,0.30
2018-12-19T04:37:40.686Z,0.30
2018-12-19T04:40:09.123Z,0.30
2018-12-19T04:42:37.554Z,0.30
2018-12-19T04:45:06.194Z,0.30
2018-12-19T04:47:34.625Z,0.30
2018-12-19T04:50:03.258Z,0.40
2018-12-19T04:52:31.709Z,0.40
2018-12-19T04:55:00.154Z,0.40
2018-12-19T04:57:28.585Z,0.40
2018-12-19T04:59:57.006Z,0.40
2018-12-19T05:02:25.410Z,0.40
2018-12-19T05:04:53.841Z,0.40
2018-12-19T05:07:22.666Z,0.40
2018-12-19T05:09:51.083Z,0.40
2018-12-19T05:12:19.509Z,0.40
2018-12-19T05:14:47.939Z,0.40
2018-12-19T05:17:16.349Z,0.40
2018-12-19T05:19:45.378Z,0.40
2018-12-19T05:22:13.793Z,0.40
2018-12-19T05:24:42.217Z,0.40
2018-12-19T05:27:10.630Z,0.40
2018-12-19T05:29:39.073Z,0.40
2018-12-19T05:32:07.486Z,0.40
2018-12-19T05:34:35.919Z,0.40
2018-12-19T05:37:04.398Z,0.40
2018-12-19T05:39:32.826Z,0.40
2018-12-19T05:42:01.228Z,0.40
2018-12-19T05:44:29.650Z,0.40
2018-12-19T05:46:58.046Z,0.30
2018-12-19T05:49:26.482Z,0.30
2018-12-19T05:51:54.973Z,0.30
2018-12-19T05:54:23.426Z,0.30
2018-12-19T05:56:51.833Z,0.30
2018-12-19T05:59:20.258Z,0.30
2018-12-19T06:01:48.658Z,0.40
2018-12-19T06:04:17.070Z,0.40
2018-12-19T06:06:45.493Z,0.40
2018-12-19T06:09:13.896Z,0.40
2018-12-19T06:11:42.328Z,0.40
2018-12-19T06:14:10.747Z,0.40
2018-12-19T06:16:39.178Z,0.40
2018-12-19T06:19:07.591Z,0.40
2018-12-19T06:21:36.016Z,0.40
2018-12-19T06:24:04.426Z,0.40
2018-12-19T06:26:32.858Z,0.40
2018-12-19T06:29:01.471Z,0.40
2018-12-19T06:31:29.911Z,0.40
2018-12-19T06:33:58.688Z,0.40
2018-12-19T06:36:27.378Z,0.40
2018-12-19T06:38:55.811Z,0.40
2018-12-19T06:41:24.254Z,0.40
2018-12-19T06:43:52.674Z,0.40
2018-12-19T06:46:21.117Z,0.40
2018-12-19T06:48:49.540Z,0.40
2018-12-19T06:51:18.961Z,0.40
2018-12-19T06:53:47.561Z,0.30
2018-12-19T06:56:15.991Z,0.30
2018-12-19T06:58:44.430Z,0.30
2018-12-19T07:01:12.870Z,0.30
2018-12-19T07:03:41.290Z,0.30
2018-12-19T07:06:09.775Z,0.30
2018-12-19T07:08:38.200Z,0.30
2018-12-19T07:11:06.627Z,0.30
2018-12-19T07:13:35.057Z,0.30
2018-12-19T07:16:03.486Z,0.30
2018-12-19T07:18:31.930Z,0.40
2018-12-19T07:21:00.388Z,0.40
2018-12-19T07:23:28.948Z,0.40
2018-12-19T07:25:57.357Z,0.40
2018-12-19T07:28:25.781Z,0.40
2018-12-19T07:30:54.184Z,0.50
2018-12-19T07:33:22.614Z,0.40
2018-12-19T07:35:51.020Z,0.50
2018-12-19T07:38:19.447Z,0.50
2018-12-19T07:40:47.855Z,0.50
2018-12-19T07:43:16.287Z,0.50
2018-12-19T07:45:44.694Z,0.50
2018-12-19T07:48:13.354Z,0.50
2018-12-19T07:50:41.770Z,0.50
2018-12-19T07:53:10.935Z,0.50
2018-12-19T07:55:40.498Z,0.50
2018-12-19T07:58:09.131Z,0.50
2018-12-19T08:00:38.046Z,0.60
2018-12-19T08:03:06.498Z,0.60
2018-12-19T08:05:34.906Z,0.60
2018-12-19T08:08:03.534Z,0.60
2018-12-19T08:10:31.942Z,0.60
2018-12-19T08:13:00.382Z,0.60
2018-12-19T08:15:28.795Z,0.60
2018-12-19T08:17:57.230Z,0.70
2018-12-19T08:20:26.160Z,0.70
2018-12-19T08:22:56.340Z,0.70
2018-12-19T08:25:24.837Z,0.70
2018-12-19T08:27:53.415Z,0.80
2018-12-19T08:30:21.839Z,0.80
2018-12-19T08:32:50.302Z,0.80
2018-12-19T08:35:18.710Z,0.80
2018-12-19T08:37:47.141Z,0.80
2018-12-19T08:40:15.575Z,0.80
2018-12-19T08:42:44.063Z,0.90
2018-12-19T08:45:12.574Z,0.80
2018-12-19T08:47:40.987Z,0.90
2018-12-19T08:50:10.007Z,0.90
2018-12-19T08:52:38.445Z,0.90
2018-12-19T08:55:07.659Z,1.00
2018-12-19T08:57:36.074Z,1.10
2018-12-19T09:00:05.674Z,1.00
2018-12-19T09:02:34.083Z,1.00
2018-12-19T09:05:02.520Z,1.00
2018-12-19T09:07:30.933Z,1.00
2018-12-19T09:09:59.354Z,1.10
2018-12-19T09:12:27.813Z,1.10
2018-12-19T09:14:57.299Z,1.10
2018-12-19T09:17:26.598Z,1.20
2018-12-19T09:19:55.334Z,1.20
2018-12-19T09:22:24.273Z,1.20
2018-12-19T09:24:52.914Z,1.20
2018-12-19T09:27:21.394Z,1.20
2018-12-19T09:29:49.821Z,1.20
2018-12-19T09:32:18.235Z,1.20
2018-12-19T09:34:46.667Z,1.20
2018-12-19T09:37:15.083Z,1.30
2018-12-19T09:39:43.509Z,1.30
2018-12-19T09:42:11.911Z,1.30
2018-12-19T09:44:40.327Z,1.30
2018-12-19T09:47:08.735Z,1.40
2018-12-19T09:49:37.176Z,1.40
2018-12-19T09:52:05.582Z,1.40
2018-12-19T09:54:34.067Z,1.40
2018-12-19T09:57:02.490Z,1.40
2018-12-19T09:59:30.935Z,1.50
2018-12-19T10:01:59.574Z,1.50
2018-12-19T10:04:28.051Z,1.50
2018-12-19T10:06:56.487Z,1.50
2018-12-19T10:09:24.914Z,1.50
2018-12-19T10:11:53.364Z,1.40
2018-12-19T10:14:21.787Z,1.40
2018-12-19T10:16:50.210Z,1.40
2018-12-19T10:19:18.614Z,1.40
2018-12-19T10:21:47.436Z,1.40
2018-12-19T10:24:16.010Z,1.40
2018-12-19T10:26:45.285Z,1.40
2018-12-19T10:29:13.703Z,1.40
2018-12-19T10:31:42.132Z,1.40
2018-12-19T10:34:10.563Z,1.40
2018-12-19T10:36:38.994Z,1.50
2018-12-19T10:39:13.612Z,1.50
2018-12-19T10:41:42.078Z,1.50
2018-12-19T10:44:10.821Z,1.50
2018-12-19T10:46:39.456Z,1.50
2018-12-19T10:49:07.890Z,1.50
2018-12-19T10:51:36.334Z,1.50
2018-12-19T10:54:04.815Z,1.50
2018-12-19T10:56:33.235Z,1.50
2018-12-19T10:59:01.673Z,1.50
2018-12-19T11:01:30.119Z,1.50
2018-12-19T11:03:58.551Z,1.50
2018-12-19T11:06:27.023Z,1.50
2018-12-19T11:08:55.488Z,1.50
2018-12-19T11:11:23.928Z,1.50
2018-12-19T11:13:52.358Z,1.60
2018-12-19T11:16:20.771Z,1.60
2018-12-19T11:18:49.232Z,1.60
2018-12-19T11:21:17.879Z,1.50
2018-12-19T11:23:46.391Z,1.50
2018-12-19T11:26:14.802Z,1.50
2018-12-19T11:28:43.286Z,1.50
2018-12-19T11:31:11.717Z,1.50
2018-12-19T11:33:40.181Z,1.50
2018-12-19T11:36:10.126Z,1.50
2018-12-19T11:38:38.875Z,1.50
2018-12-19T11:41:07.297Z,1.60
2018-12-19T11:43:35.876Z,1.60
2018-12-19T11:46:04.426Z,1.60
2018-12-19T11:48:32.867Z,1.60
2018-12-19T11:51:01.281Z,1.70
2018-12-19T11:53:29.746Z,1.70
2018-12-19T11:55:58.190Z,1.70
2018-12-19T11:58:26.682Z,1.70
2018-12-19T12:00:55.218Z,1.80
2018-12-19T12:03:23.659Z,1.80
2018-12-19T12:05:52.079Z,1.80
2018-12-19T12:08:20.518Z,1.80
2018-12-19T12:10:48.946Z,1.80
2018-12-19T12:13:17.362Z,1.80
2018-12-19T12:15:45.921Z,1.80
2018-12-19T12:18:14.340Z,1.80
2018-12-19T12:20:42.778Z,1.80
2018-12-19T12:23:11.215Z,1.80
2018-12-19T12:25:39.654Z,1.70
2018-12-19T12:28:08.081Z,1.70
2018-12-19T12:30:36.522Z,1.70
2018-12-19T12:33:04.936Z,1.70
2018-12-19T12:35:33.366Z,1.70
2018-12-19T12:38:01.783Z,1.70
2018-12-19T12:40:30.215Z,1.80
2018-12-19T12:42:58.633Z,1.80
2018-12-19T12:45:27.091Z,1.80
2018-12-19T12:47:55.514Z,1.80
2018-12-19T12:50:23.968Z,1.80
2018-12-19T12:52:52.413Z,1.80
2018-12-19T12:55:20.842Z,1.80
2018-12-19T12:57:49.254Z,1.80
2018-12-19T13:00:17.689Z,1.80
2018-12-19T13:02:46.125Z,1.80
2018-12-19T13:05:14.682Z,1.80
2018-12-19T13:07:43.242Z,1.90
2018-12-19T13:10:11.678Z,1.80
2018-12-19T13:12:40.150Z,1.80
2018-12-19T13:15:09.118Z,1.80
2018-12-19T13:17:37.531Z,1.80
2018-12-19T13:20:06.543Z,1.80
2018-12-19T13:22:34.980Z,1.80
2018-12-19T13:25:03.526Z,1.80
2018-12-19T13:27:31.974Z,1.80
2018-12-19T13:30:00.390Z,1.80
2018-12-19T13:32:29.932Z,1.80
2018-12-19T13:34:58.356Z,1.80
2018-12-19T13:37:27.618Z,1.70
2018-12-19T13:39:56.653Z,1.70
2018-12-19T13:42:25.099Z,1.70
2018-12-19T13:44:53.514Z,1.70
2018-12-19T13:47:21.965Z,1.70
2018-12-19T13:49:50.382Z,1.70
2018-12-19T13:52:18.834Z,1.70
2018-12-19T13:54:47.319Z,1.80
2018-12-19T13:57:15.758Z,1.80
2018-12-19T13:59:44.162Z,1.80
2018-12-19T14:02:12.606Z,1.80
2018-12-19T14:04:41.249Z,1.80
2018-12-19T14:07:10.002Z,1.80
2018-12-19T14:09:38.533Z,1.80
2018-12-19T14:12:12.225Z,1.80
2018-12-19T14:14:37.405Z,1.80
2018-12-19T14:17:05.834Z,1.80
2018-12-19T14:19:34.238Z,1.80
2018-12-19T14:22:02.665Z,1.80
2018-12-19T14:24:31.090Z,1.80
2018-12-19T14:26:59.540Z,1.70
2018-12-19T14:29:28.007Z,1.70
2018-12-19T14:31:56.450Z,1.70
2018-12-19T14:34:24.891Z,1.70
2018-12-19T14:36:53.315Z,1.70
2018-12-19T14:39:21.752Z,1.70
2018-12-19T14:41:50.178Z,1.70
2018-12-19T14:44:18.626Z,1.70
2018-12-19T14:46:47.074Z,1.70
2018-12-19T14:49:15.542Z,1.70
2018-12-19T14:51:43.964Z,1.70
2018-12-19T14:54:12.406Z,1.70
2018-12-19T14:56:40.938Z,1.70
2018-12-19T14:59:09.400Z,1.70
2018-12-19T15:01:37.821Z,1.70
2018-12-19T15:04:06.301Z,1.70
2018-12-19T15:06:34.894Z,1.70
2018-12-19T15:09:03.991Z,1.70
2018-12-19T15:11:32.390Z,1.70
2018-12-19T15:14:01.002Z,1.70
2018-12-19T15:16:29.416Z,1.70
2018-12-19T15:18:57.846Z,1.70
2018-12-19T15:21:26.272Z,1.70
2018-12-19T15:23:54.811Z,1.60
2018-12-19T15:26:23.234Z,1.70
2018-12-19T15:28:51.733Z,1.60
2018-12-19T15:31:20.150Z,1.60
2018-12-19T15:33:48.582Z,1.60
2018-12-19T15:36:17.165Z,1.60
2018-12-19T15:38:45.592Z,1.60
2018-12-19T15:41:14.291Z,1.60
2018-12-19T15:43:42.751Z,1.60
2018-12-19T15:46:11.279Z,1.60
2018-12-19T15:48:39.714Z,1.60
2018-12-19T15:51:08.156Z,1.60
2018-12-19T15:53:36.587Z,1.70
2018-12-19T15:56:05.012Z,1.70
2018-12-19T15:58:33.415Z,1.70
2018-12-19T16:01:01.849Z,1.70
2018-12-19T16:03:30.267Z,1.70
2018-12-19T16:05:58.690Z,1.80
2018-12-19T16:08:27.671Z,1.70
2018-12-19T16:10:56.275Z,1.70
2018-12-19T16:13:24.675Z,1.70
2018-12-19T16:15:53.138Z,1.70
2018-12-19T16:18:21.538Z,1.70
2018-12-19T16:20:49.969Z,1.70
2018-12-19T16:23:18.399Z,1.70
2018-12-19T16:25:46.818Z,1.70
2018-12-19T16:28:15.370Z,1.70
2018-12-19T16:30:43.793Z,1.70
2018-12-19T16:33:12.254Z,1.70
2018-12-19T16:35:40.677Z,1.70
2018-12-19T16:38:09.118Z,1.70
2018-12-19T16:40:37.546Z,1.70
2018-12-19T16:43:05.967Z,1.70
2018-12-19T16:45:34.436Z,1.70
2018-12-19T16:48:02.856Z,1.70
2018-12-19T16:50:31.282Z,1.70
2018-12-19T16:52:59.745Z,1.60
2018-12-19T16:55:28.158Z,1.60
2018-12-19T16:57:56.785Z,1.60
2018-12-19T17:00:25.342Z,1.60
2018-12-19T17:02:53.784Z,1.60
2018-12-19T17:05:22.192Z,1.60
2018-12-19T17:07:50.637Z,1.60
2018-12-19T17:10:19.038Z,1.60
2018-12-19T17:12:52.770Z,1.70
2018-12-19T17:15:17.898Z,1.70
2018-12-19T17:17:46.348Z,1.70
2018-12-19T17:20:14.790Z,1.70
2018-12-19T17:22:43.239Z,1.70
2018-12-19T17:25:11.646Z,1.70
2018-12-19T17:27:40.071Z,1.70
2018-12-19T17:30:08.595Z,1.70
2018-12-19T17:32:37.038Z,1.70
2018-12-19T17:35:06.230Z,1.70
2018-12-19T17:37:34.651Z,1.70
2018-12-19T17:40:03.177Z,1.80
2018-12-19T17:42:31.598Z,1.70
2018-12-19T17:45:00.027Z,1.70
2018-12-19T17:47:28.431Z,1.80
2018-12-19T17:49:56.856Z,1.80
2018-12-19T17:52:25.293Z,1.80
2018-12-19T17:54:53.736Z,1.80
2018-12-19T17:57:22.152Z,1.70
2018-12-19T17:59:50.582Z,1.80
2018-12-19T18:02:18.986Z,1.80
2018-12-19T18:04:47.411Z,1.80
2018-12-19T18:07:15.838Z,1.80
2018-12-19T18:09:44.269Z,1.80
2018-12-19T18:12:12.785Z,1.80
2018-12-19T18:14:41.344Z,1.80
2018-12-19T18:17:09.753Z,1.80
2018-12-19T18:19:38.170Z,1.80
2018-12-19T18:22:06.570Z,1.80
2018-12-19T18:24:37.851Z,1.80
2018-12-19T18:27:06.314Z,1.90
2018-12-19T18:29:34.798Z,1.90
2018-12-19T18:32:03.206Z,1.90
2018-12-19T18:34:31.625Z,1.90
2018-12-19T18:37:00.066Z,1.90
2018-12-19T18:39:28.485Z,1.90
2018-12-19T18:41:56.898Z,1.90
2018-12-19T18:44:25.323Z,1.90
2018-12-19T18:46:53.719Z,1.90
2018-12-19T18:49:22.155Z,1.90
2018-12-19T18:51:50.554Z,1.90
2018-12-19T18:54:19.289Z,1.90
2018-12-19T18:56:47.695Z,1.90
2018-12-19T18:59:16.097Z,1.90
2018-12-19T19:01:44.647Z,1.90
2018-12-19T19:04:13.070Z,1.90
2018-12-19T19:06:41.619Z,1.80
2018-12-19T19:09:10.114Z,1.80
2018-12-19T19:11:38.534Z,1.80
2018-12-19T19:14:06.971Z,1.80
2018-12-19T19:16:35.400Z,1.90
2018-12-19T19:19:03.950Z,1.90
2018-12-19T19:21:32.373Z,1.90
2018-12-19T19:24:00.787Z,1.90
2018-12-19T19:26:29.206Z,1.90
2018-12-19T19:28:57.646Z,1.90
2018-12-19T19:31:26.064Z,1.90
2018-12-19T19:33:54.462Z,1.90
2018-12-19T19:36:22.898Z,1.90
2018-12-19T19:38:51.305Z,1.80
2018-12-19T19:41:19.738Z,1.90
2018-12-19T19:43:48.157Z,1.80
2018-12-19T19:46:16.574Z,1.90
2018-12-19T19:48:44.974Z,1.80
2018-12-19T19:51:16.897Z,1.90
2018-12-19T19:53:43.849Z,1.90
2018-12-19T19:56:12.286Z,1.90
2018-12-19T19:58:40.696Z,1.90
2018-12-19T20:01:09.118Z,1.80
2018-12-19T20:03:37.523Z,1.90
2018-12-19T20:06:05.956Z,1.90
2018-12-19T20:08:34.491Z,1.90
2018-12-19T20:11:02.965Z,1.90
2018-12-19T20:13:33.439Z,1.90
2018-12-19T20:16:01.799Z,1.90
2018-12-19T20:18:30.357Z,1.80
2018-12-19T20:20:58.878Z,1.90
2018-12-19T20:23:27.302Z,1.80
2018-12-19T20:25:55.710Z,1.90
2018-12-19T20:28:24.131Z,1.80
2018-12-19T20:30:52.553Z,1.80
2018-12-19T20:33:21.234Z,1.80
2018-12-19T20:35:49.642Z,1.80
2018-12-19T20:38:18.062Z,1.80
2018-12-19T20:40:46.466Z,1.80
2018-12-19T20:43:14.887Z,1.90
2018-12-19T20:45:43.313Z,1.90
2018-12-19T20:48:11.746Z,1.90
2018-12-19T20:50:40.182Z,1.90
2018-12-19T20:53:08.636Z,1.90
2018-12-19T20:55:37.050Z,1.90
2018-12-19T20:58:05.470Z,1.90
2018-12-19T21:00:34.002Z,1.90
2018-12-19T21:03:02.542Z,1.90
2018-12-19T21:05:30.952Z,1.90
2018-12-19T21:07:59.504Z,1.90
2018-12-19T21:10:28.049Z,1.90
2018-12-19T21:12:56.474Z,1.90
2018-12-19T21:15:24.887Z,1.90
2018-12-19T21:17:58.831Z,1.90
2018-12-19T21:20:27.360Z,1.90
2018-12-19T21:22:55.891Z,1.90
2018-12-19T21:25:24.319Z,1.90
2018-12-19T21:27:52.748Z,1.90
2018-12-19T21:30:21.245Z,1.90
2018-12-19T21:32:49.666Z,2.00
2018-12-19T21:35:18.202Z,2.00
2018-12-19T21:37:46.615Z,2.00
2018-12-19T21:40:15.166Z,2.00
2018-12-19T21:42:43.931Z,2.00
2018-12-19T21:45:12.466Z,2.00
2018-12-19T21:47:41.006Z,2.00
2018-12-19T21:50:09.611Z,2.10
2018-12-19T21:52:38.254Z,2.10
2018-12-19T21:55:06.752Z,2.00
2018-12-19T21:57:35.289Z,2.00
2018-12-19T22:00:04.052Z,2.00
2018-12-19T22:02:32.494Z,2.00
2018-12-19T22:05:01.025Z,2.00
2018-12-19T22:07:29.476Z,2.00
2018-12-19T22:09:58.090Z,2.00
2018-12-19T22:12:26.491Z,2.00
2018-12-19T22:14:55.017Z,2.00
2018-12-19T22:17:28.827Z,2.00
2018-12-19T22:19:57.243Z,2.00
2018-12-19T22:22:25.676Z,2.00
2018-12-19T22:24:54.287Z,2.00
2018-12-19T22:27:22.775Z,2.10
2018-12-19T22:29:51.595Z,2.10
2018-12-19T22:32:20.226Z,2.10
2018-12-19T22:34:48.883Z,2.10
2018-12-19T22:37:17.402Z,2.00
2018-12-19T22:39:45.823Z,2.00
2018-12-19T22:42:14.342Z,2.00
2018-12-19T22:44:42.956Z,2.00
2018-12-19T22:47:11.363Z,2.00
2018-12-19T22:49:39.785Z,2.00
2018-12-19T22:52:08.527Z,2.00
2018-12-19T22:54:37.191Z,2.00
2018-12-19T22:57:05.866Z,2.00
2018-12-19T22:59:34.489Z,2.00
2018-12-19T23:02:08.286Z,2.00
2018-12-19T23:04:37.043Z,2.00
2018-12-19T23:07:05.567Z,2.00
2018-12-19T23:09:34.265Z,2.00
2018-12-19T23:12:03.060Z,2.00
2018-12-19T23:14:31.769Z,2.00
2018-12-19T23:17:04.523Z,2.00
2018-12-19T23:19:33.005Z,2.00
2018-12-19T23:22:01.636Z,2.00
2018-12-19T23:24:30.296Z,2.00
2018-12-19T23:26:59.013Z,2.00
2018-12-19T23:29:27.789Z,2.00
2018-12-19T23:31:56.500Z,2.10
2018-12-19T23:34:24.948Z,2.10
2018-12-19T23:36:53.470Z,2.10
2018-12-19T23:39:21.872Z,2.10
2018-12-19T23:41:50.378Z,2.10
2018-12-19T23:44:24.239Z,2.10
2018-12-19T23:46:53.060Z,2.10
2018-12-19T23:49:21.849Z,2.10
2018-12-19T23:51:50.703Z,2.10
2018-12-19T23:54:19.557Z,2.10
2018-12-19T23:56:48.086Z,2.10
2018-12-19T23:59:16.803Z,2.10
